sensor_id;sensor_type;location;lat;lon;timestamp;pressure;altitude;pressure_sealevel;temperature;humidity
10940;BME280;5522;42.696;23.494;2023-03-24T00:01:20;53797.53;;;-139.68;100.00
10940;BME280;5522;42.696;23.494;2023-03-24T00:03:47;53819.63;;;-139.68;100.00
10940;BME280;5522;42.696;23.494;2023-03-24T00:06:18;53815.63;;;-139.68;100.00
10940;BME280;5522;42.696;23.494;2023-03-24T00:08:47;53791.50;;;-139.68;100.00
10940;BME280;5522;42.696;23.494;2023-03-24T00:11:14;53825.66;;;-139.68;100.00
10940;BME280;5522;42.696;23.494;2023-03-24T00:13:42;53831.69;;;-139.68;100.00
10940;BME280;5522;42.696;23.494;2023-03-24T00:16:13;53789.47;;;-139.68;100.00
10940;BME280;5522;42.696;23.494;2023-03-24T00:18:41;53795.50;;;-139.68;100.00
10940;BME280;5522;42.696;23.494;2023-03-24T00:21:08;53793.50;;;-139.68;100.00
10940;BME280;5522;42.696;23.494;2023-03-24T00:23:37;53827.69;;;-139.68;100.00
10940;BME280;5522;42.696;23.494;2023-03-24T00:26:08;53789.47;;;-139.68;100.00
10940;BME280;5522;42.696;23.494;2023-03-24T00:28:37;53827.69;;;-139.68;100.00
10940;BME280;5522;42.696;23.494;2023-03-24T00:31:05;53799.53;;;-139.68;100.00
10940;BME280;5522;42.696;23.494;2023-03-24T00:33:33;53799.53;;;-139.68;100.00
10940;BME280;5522;42.696;23.494;2023-03-24T00:36:02;53779.44;;;-139.68;100.00
10940;BME280;5522;42.696;23.494;2023-03-24T00:38:30;53795.50;;;-139.68;100.00
10940;BME280;5522;42.696;23.494;2023-03-24T00:41:00;53785.47;;;-139.68;100.00
10940;BME280;5522;42.696;23.494;2023-03-24T00:43:27;53807.56;;;-139.68;100.00
10940;BME280;5522;42.696;23.494;2023-03-24T00:45:57;53771.38;;;-139.68;100.00
10940;BME280;5522;42.696;23.494;2023-03-24T00:48:26;53809.59;;;-139.68;100.00
10940;BME280;5522;42.696;23.494;2023-03-24T00:50:54;53777.41;;;-139.68;100.00
10940;BME280;5522;42.696;23.494;2023-03-24T00:53:21;53801.53;;;-139.68;100.00
10940;BME280;5522;42.696;23.494;2023-03-24T00:55:50;53793.50;;;-139.68;100.00
10940;BME280;5522;42.696;23.494;2023-03-24T00:58:19;53755.31;;;-139.68;100.00
10940;BME280;5522;42.696;23.494;2023-03-24T01:06:00;53821.66;;;-139.68;100.00
10940;BME280;5522;42.696;23.494;2023-03-24T01:08:27;53819.63;;;-139.68;100.00
10940;BME280;5522;42.696;23.494;2023-03-24T01:10:54;53811.59;;;-139.68;100.00
10940;BME280;5522;42.696;23.494;2023-03-24T01:13:25;53771.38;;;-139.68;100.00
10940;BME280;5522;42.696;23.494;2023-03-24T01:15:53;53801.53;;;-139.68;100.00
10940;BME280;5522;42.696;23.494;2023-03-24T01:18:20;53767.38;;;-139.68;100.00
10940;BME280;5522;42.696;23.494;2023-03-24T01:20:49;53777.41;;;-139.68;100.00
10940;BME280;5522;42.696;23.494;2023-03-24T01:23:19;53781.44;;;-139.68;100.00
10940;BME280;5522;42.696;23.494;2023-03-24T01:25:46;53751.28;;;-139.68;100.00
10940;BME280;5522;42.696;23.494;2023-03-24T01:28:16;53763.34;;;-139.68;100.00
10940;BME280;5522;42.696;23.494;2023-03-24T01:30:47;53725.16;;;-139.68;100.00
10940;BME280;5522;42.696;23.494;2023-03-24T01:33:14;53765.34;;;-139.68;100.00
10940;BME280;5522;42.696;23.494;2023-03-24T01:35:41;53773.41;;;-139.68;100.00
10940;BME280;5522;42.696;23.494;2023-03-24T01:38:10;53791.50;;;-139.68;100.00
10940;BME280;5522;42.696;23.494;2023-03-24T01:40:39;53775.41;;;-139.68;100.00
10940;BME280;5522;42.696;23.494;2023-03-24T01:43:12;53761.34;;;-139.68;100.00
10940;BME280;5522;42.696;23.494;2023-03-24T01:45:54;53799.53;;;-139.68;100.00
10940;BME280;5522;42.696;23.494;2023-03-24T01:48:27;53787.47;;;-139.68;100.00
10940;BME280;5522;42.696;23.494;2023-03-24T01:51:01;53815.63;;;-139.68;100.00
10940;BME280;5522;42.696;23.494;2023-03-24T01:53:31;53775.41;;;-139.68;100.00
10940;BME280;5522;42.696;23.494;2023-03-24T01:55:59;53803.56;;;-139.68;100.00
10940;BME280;5522;42.696;23.494;2023-03-24T01:58:30;53771.38;;;-139.68;100.00
10940;BME280;5522;42.696;23.494;2023-03-24T02:00:59;53751.28;;;-139.68;100.00
10940;BME280;5522;42.696;23.494;2023-03-24T02:03:26;53771.38;;;-139.68;100.00
10940;BME280;5522;42.696;23.494;2023-03-24T02:05:59;53755.31;;;-139.68;100.00
10940;BME280;5522;42.696;23.494;2023-03-24T02:08:37;53785.47;;;-139.68;100.00
10940;BME280;5522;42.696;23.494;2023-03-24T02:11:06;53787.47;;;-139.68;100.00
10940;BME280;5522;42.696;23.494;2023-03-24T02:13:33;53767.38;;;-139.68;100.00
10940;BME280;5522;42.696;23.494;2023-03-24T02:19:04;53759.31;;;-139.68;100.00
10940;BME280;5522;42.696;23.494;2023-03-24T02:22:20;53803.56;;;-139.68;100.00
10940;BME280;5522;42.696;23.494;2023-03-24T02:25:19;53791.50;;;-139.68;100.00
10940;BME280;5522;42.696;23.494;2023-03-24T02:28:06;53725.16;;;-139.68;100.00
10940;BME280;5522;42.696;23.494;2023-03-24T02:30:58;53799.53;;;-139.68;100.00
10940;BME280;5522;42.696;23.494;2023-03-24T02:34:04;53793.50;;;-139.68;100.00
10940;BME280;5522;42.696;23.494;2023-03-24T02:40:03;53783.44;;;-139.68;100.00
10940;BME280;5522;42.696;23.494;2023-03-24T02:42:43;53731.19;;;-139.68;100.00
10940;BME280;5522;42.696;23.494;2023-03-24T02:45:21;53765.34;;;-139.68;100.00
10940;BME280;5522;42.696;23.494;2023-03-24T02:47:55;53771.38;;;-139.68;100.00
10940;BME280;5522;42.696;23.494;2023-03-24T02:50:30;53763.34;;;-139.68;100.00
10940;BME280;5522;42.696;23.494;2023-03-24T02:53:06;53719.13;;;-139.68;100.00
10940;BME280;5522;42.696;23.494;2023-03-24T02:55:39;53753.28;;;-139.68;100.00
10940;BME280;5522;42.696;23.494;2023-03-24T02:58:14;53743.25;;;-139.68;100.00
10940;BME280;5522;42.696;23.494;2023-03-24T03:00:47;53719.13;;;-139.68;100.00
10940;BME280;5522;42.696;23.494;2023-03-24T03:03:20;53743.25;;;-139.68;100.00
10940;BME280;5522;42.696;23.494;2023-03-24T03:05:52;53741.22;;;-139.68;100.00
10940;BME280;5522;42.696;23.494;2023-03-24T03:08:24;53743.25;;;-139.68;100.00
10940;BME280;5522;42.696;23.494;2023-03-24T03:10:56;53743.25;;;-139.68;100.00
10940;BME280;5522;42.696;23.494;2023-03-24T03:13:28;53775.41;;;-139.68;100.00
10940;BME280;5522;42.696;23.494;2023-03-24T03:15:59;53755.31;;;-139.68;100.00
10940;BME280;5522;42.696;23.494;2023-03-24T03:18:31;53783.44;;;-139.68;100.00
10940;BME280;5522;42.696;23.494;2023-03-24T03:21:01;53763.34;;;-139.68;100.00
10940;BME280;5522;42.696;23.494;2023-03-24T03:23:34;53775.41;;;-139.68;100.00
10940;BME280;5522;42.696;23.494;2023-03-24T03:26:06;53771.38;;;-139.68;100.00
10940;BME280;5522;42.696;23.494;2023-03-24T03:28:40;53775.41;;;-139.68;100.00
10940;BME280;5522;42.696;23.494;2023-03-24T03:31:18;53759.31;;;-139.68;100.00
10940;BME280;5522;42.696;23.494;2023-03-24T03:33:51;53763.34;;;-139.68;100.00
10940;BME280;5522;42.696;23.494;2023-03-24T03:36:24;53747.25;;;-139.68;100.00
10940;BME280;5522;42.696;23.494;2023-03-24T03:38:55;53751.28;;;-139.68;100.00
10940;BME280;5522;42.696;23.494;2023-03-24T03:41:27;53731.19;;;-139.68;100.00
10940;BME280;5522;42.696;23.494;2023-03-24T03:43:54;53745.25;;;-139.68;100.00
10940;BME280;5522;42.696;23.494;2023-03-24T03:46:21;53775.41;;;-139.68;100.00
10940;BME280;5522;42.696;23.494;2023-03-24T03:48:48;53727.16;;;-139.68;100.00
10940;BME280;5522;42.696;23.494;2023-03-24T03:51:15;53789.47;;;-139.68;100.00
10940;BME280;5522;42.696;23.494;2023-03-24T03:53:46;53745.25;;;-139.68;100.00
10940;BME280;5522;42.696;23.494;2023-03-24T03:56:14;53777.41;;;-139.68;100.00
10940;BME280;5522;42.696;23.494;2023-03-24T03:58:44;53755.31;;;-139.68;100.00
10940;BME280;5522;42.696;23.494;2023-03-24T04:01:15;53741.22;;;-139.68;100.00
10940;BME280;5522;42.696;23.494;2023-03-24T04:03:59;53775.41;;;-139.68;100.00
10940;BME280;5522;42.696;23.494;2023-03-24T04:06:35;53777.41;;;-139.68;100.00
10940;BME280;5522;42.696;23.494;2023-03-24T04:09:13;53755.31;;;-139.68;100.00
10940;BME280;5522;42.696;23.494;2023-03-24T04:11:55;53763.34;;;-139.68;100.00
10940;BME280;5522;42.696;23.494;2023-03-24T04:14:42;53755.31;;;-139.68;100.00
10940;BME280;5522;42.696;23.494;2023-03-24T04:17:24;53787.47;;;-139.68;100.00
10940;BME280;5522;42.696;23.494;2023-03-24T04:20:02;53763.34;;;-139.68;100.00
10940;BME280;5522;42.696;23.494;2023-03-24T04:22:43;53793.50;;;-139.68;100.00
10940;BME280;5522;42.696;23.494;2023-03-24T04:25:19;53745.25;;;-139.68;100.00
10940;BME280;5522;42.696;23.494;2023-03-24T04:27:57;53773.41;;;-139.68;100.00
10940;BME280;5522;42.696;23.494;2023-03-24T04:30:31;53723.13;;;-139.68;100.00
10940;BME280;5522;42.696;23.494;2023-03-24T04:33:04;53735.19;;;-139.68;100.00
10940;BME280;5522;42.696;23.494;2023-03-24T04:35:36;53775.41;;;-139.68;100.00
10940;BME280;5522;42.696;23.494;2023-03-24T04:38:08;53747.25;;;-139.68;100.00
10940;BME280;5522;42.696;23.494;2023-03-24T04:40:36;53755.31;;;-139.68;100.00
10940;BME280;5522;42.696;23.494;2023-03-24T04:43:09;53751.28;;;-139.68;100.00
10940;BME280;5522;42.696;23.494;2023-03-24T04:45:40;53763.34;;;-139.68;100.00
10940;BME280;5522;42.696;23.494;2023-03-24T04:48:08;53773.41;;;-139.68;100.00
10940;BME280;5522;42.696;23.494;2023-03-24T04:50:39;53755.31;;;-139.68;100.00
10940;BME280;5522;42.696;23.494;2023-03-24T04:53:08;53763.34;;;-139.68;100.00
10940;BME280;5522;42.696;23.494;2023-03-24T04:56:02;53771.38;;;-139.68;100.00
10940;BME280;5522;42.696;23.494;2023-03-24T04:58:30;53803.56;;;-139.68;100.00
10940;BME280;5522;42.696;23.494;2023-03-24T05:00:59;53783.44;;;-139.68;100.00
10940;BME280;5522;42.696;23.494;2023-03-24T05:03:27;53785.47;;;-139.68;100.00
10940;BME280;5522;42.696;23.494;2023-03-24T05:05:54;53745.25;;;-139.68;100.00
10940;BME280;5522;42.696;23.494;2023-03-24T05:08:21;53763.34;;;-139.68;100.00
10940;BME280;5522;42.696;23.494;2023-03-24T05:10:48;53783.44;;;-139.68;100.00
10940;BME280;5522;42.696;23.494;2023-03-24T05:13:16;53759.31;;;-139.68;100.00
10940;BME280;5522;42.696;23.494;2023-03-24T05:15:42;53823.66;;;-139.68;100.00
10940;BME280;5522;42.696;23.494;2023-03-24T05:18:11;53831.69;;;-139.68;100.00
10940;BME280;5522;42.696;23.494;2023-03-24T05:20:38;53803.56;;;-139.68;100.00
10940;BME280;5522;42.696;23.494;2023-03-24T05:23:05;53799.53;;;-139.68;98.78
10940;BME280;5522;42.696;23.494;2023-03-24T05:25:32;53785.47;;;-139.68;98.71
10940;BME280;5522;42.696;23.494;2023-03-24T05:27:58;53785.47;;;-139.68;93.89
10940;BME280;5522;42.696;23.494;2023-03-24T05:30:25;53803.56;;;-139.68;96.68
10940;BME280;5522;42.696;23.494;2023-03-24T05:32:52;53807.56;;;-139.68;100.00
10940;BME280;5522;42.696;23.494;2023-03-24T05:35:20;53791.50;;;-139.68;100.00
10940;BME280;5522;42.696;23.494;2023-03-24T05:37:47;53791.50;;;-139.68;100.00
10940;BME280;5522;42.696;23.494;2023-03-24T05:40:14;53791.50;;;-139.68;97.00
10940;BME280;5522;42.696;23.494;2023-03-24T05:42:41;53795.50;;;-139.68;89.84
10940;BME280;5522;42.696;23.494;2023-03-24T05:45:09;53819.63;;;-139.68;84.97
10940;BME280;5522;42.696;23.494;2023-03-24T05:47:37;53835.72;;;-139.68;75.24
10940;BME280;5522;42.696;23.494;2023-03-24T05:50:04;53801.53;;;-139.68;59.70
10940;BME280;5522;42.696;23.494;2023-03-24T05:52:33;53843.75;;;-139.68;51.75
10940;BME280;5522;42.696;23.494;2023-03-24T05:55:01;53827.69;;;-139.68;47.53
10940;BME280;5522;42.696;23.494;2023-03-24T05:57:28;53843.75;;;-139.68;47.69
10940;BME280;5522;42.696;23.494;2023-03-24T05:59:55;53825.66;;;-139.68;47.85
10940;BME280;5522;42.696;23.494;2023-03-24T06:02:22;53865.88;;;-139.68;43.73
10940;BME280;5522;42.696;23.494;2023-03-24T06:04:49;53843.75;;;-139.68;41.53
10940;BME280;5522;42.696;23.494;2023-03-24T06:07:17;53851.81;;;-139.68;39.71
10940;BME280;5522;42.696;23.494;2023-03-24T06:09:46;53847.78;;;-139.68;37.66
10940;BME280;5522;42.696;23.494;2023-03-24T06:12:15;53898.03;;;-139.68;37.70
10940;BME280;5522;42.696;23.494;2023-03-24T06:14:42;53892.00;;;-139.68;38.09
10940;BME280;5522;42.696;23.494;2023-03-24T06:17:10;53865.88;;;-139.68;39.86
10940;BME280;5522;42.696;23.494;2023-03-24T06:19:39;53855.81;;;-139.68;39.22
10940;BME280;5522;42.696;23.494;2023-03-24T06:22:14;53871.91;;;-139.68;38.99
10940;BME280;5522;42.696;23.494;2023-03-24T06:24:41;53879.94;;;-139.68;37.43
10940;BME280;5522;42.696;23.494;2023-03-24T06:27:10;53883.97;;;-139.68;36.36
10940;BME280;5522;42.696;23.494;2023-03-24T06:29:38;53837.72;;;-139.68;36.48
10940;BME280;5522;42.696;23.494;2023-03-24T06:32:07;53902.06;;;-139.68;36.01
10940;BME280;5522;42.696;23.494;2023-03-24T06:34:34;53865.88;;;-139.68;36.24
10940;BME280;5522;42.696;23.494;2023-03-24T06:37:01;53827.69;;;-139.68;35.93
10940;BME280;5522;42.696;23.494;2023-03-24T06:39:28;53873.91;;;-139.68;36.82
10940;BME280;5522;42.696;23.494;2023-03-24T06:41:55;53896.03;;;-139.68;35.83
10940;BME280;5522;42.696;23.494;2023-03-24T06:44:24;53890.00;;;-139.68;34.94
10940;BME280;5522;42.696;23.494;2023-03-24T06:46:51;53867.88;;;-139.68;34.32
10940;BME280;5522;42.696;23.494;2023-03-24T06:49:17;53865.88;;;-139.68;33.98
10940;BME280;5522;42.696;23.494;2023-03-24T06:51:44;53892.00;;;-139.68;33.83
10940;BME280;5522;42.696;23.494;2023-03-24T06:54:11;53885.97;;;-139.68;34.06
10940;BME280;5522;42.696;23.494;2023-03-24T06:56:38;53873.91;;;-139.68;34.64
10940;BME280;5522;42.696;23.494;2023-03-24T06:59:05;53871.91;;;-139.68;34.01
10940;BME280;5522;42.696;23.494;2023-03-24T07:01:33;53900.06;;;-139.68;36.55
10940;BME280;5522;42.696;23.494;2023-03-24T07:04:01;53896.03;;;-139.68;35.97
10940;BME280;5522;42.696;23.494;2023-03-24T07:06:28;53892.00;;;-139.68;35.51
10940;BME280;5522;42.696;23.494;2023-03-24T07:08:55;53873.91;;;-139.68;34.41
10940;BME280;5522;42.696;23.494;2023-03-24T07:11:22;53883.97;;;-139.68;32.96
10940;BME280;5522;42.696;23.494;2023-03-24T07:13:49;53920.16;;;-139.68;32.13
10940;BME280;5522;42.696;23.494;2023-03-24T07:16:16;53888.00;;;-139.68;31.95
10940;BME280;5522;42.696;23.494;2023-03-24T07:18:44;53922.16;;;-139.68;31.13
10940;BME280;5522;42.696;23.494;2023-03-24T07:21:11;53924.16;;;-139.68;31.28
10940;BME280;5522;42.696;23.494;2023-03-24T07:23:38;53896.03;;;-139.68;31.51
10940;BME280;5522;42.696;23.494;2023-03-24T07:26:05;53954.31;;;-139.68;33.46
10940;BME280;5522;42.696;23.494;2023-03-24T07:28:32;53920.16;;;-139.68;33.46
10940;BME280;5522;42.696;23.494;2023-03-24T07:31:01;53912.13;;;-139.68;32.30
10940;BME280;5522;42.696;23.494;2023-03-24T07:33:28;53892.00;;;-139.68;32.54
10940;BME280;5522;42.696;23.494;2023-03-24T07:35:56;53928.19;;;-139.68;32.86
10940;BME280;5522;42.696;23.494;2023-03-24T07:38:24;53900.06;;;-139.68;32.56
10940;BME280;5522;42.696;23.494;2023-03-24T07:40:51;53914.13;;;-139.68;32.00
10940;BME280;5522;42.696;23.494;2023-03-24T07:43:18;53950.31;;;-139.68;32.39
10940;BME280;5522;42.696;23.494;2023-03-24T07:45:46;53936.22;;;-139.68;31.68
10940;BME280;5522;42.696;23.494;2023-03-24T07:48:13;53914.13;;;-139.68;32.10
10940;BME280;5522;42.696;23.494;2023-03-24T07:50:40;53920.16;;;-139.68;31.44
10940;BME280;5522;42.696;23.494;2023-03-24T07:53:08;53888.00;;;-139.68;31.90
10940;BME280;5522;42.696;23.494;2023-03-24T07:55:36;53914.13;;;-139.68;32.49
10940;BME280;5522;42.696;23.494;2023-03-24T07:58:03;53890.00;;;-139.68;31.95
10940;BME280;5522;42.696;23.494;2023-03-24T08:00:30;53906.06;;;-139.68;32.50
10940;BME280;5522;42.696;23.494;2023-03-24T08:02:57;53920.16;;;-139.68;32.68
10940;BME280;5522;42.696;23.494;2023-03-24T08:05:28;53956.34;;;-139.68;33.08
10940;BME280;5522;42.696;23.494;2023-03-24T08:07:56;53904.06;;;-139.68;33.48
10940;BME280;5522;42.696;23.494;2023-03-24T08:10:26;53912.13;;;-139.68;34.31
10940;BME280;5522;42.696;23.494;2023-03-24T08:12:53;53890.00;;;-139.68;33.91
10940;BME280;5522;42.696;23.494;2023-03-24T08:15:20;53910.09;;;-139.68;35.17
10940;BME280;5522;42.696;23.494;2023-03-24T08:17:47;53867.88;;;-139.68;34.62
10940;BME280;5522;42.696;23.494;2023-03-24T08:20:15;53924.16;;;-139.68;34.92
10940;BME280;5522;42.696;23.494;2023-03-24T08:22:44;53902.06;;;-139.68;33.23
10940;BME280;5522;42.696;23.494;2023-03-24T08:25:20;53908.09;;;-139.68;32.12
10940;BME280;5522;42.696;23.494;2023-03-24T08:27:48;53912.13;;;-139.68;33.16
10940;BME280;5522;42.696;23.494;2023-03-24T08:30:17;53912.13;;;-139.68;32.86
10940;BME280;5522;42.696;23.494;2023-03-24T08:32:46;53883.97;;;-139.68;32.35
10940;BME280;5522;42.696;23.494;2023-03-24T08:35:14;53948.31;;;-139.68;32.17
10940;BME280;5522;42.696;23.494;2023-03-24T08:37:43;53954.31;;;-139.68;32.48
10940;BME280;5522;42.696;23.494;2023-03-24T08:40:13;53918.16;;;-139.68;32.36
10940;BME280;5522;42.696;23.494;2023-03-24T08:42:43;53944.28;;;-139.68;31.51
10940;BME280;5522;42.696;23.494;2023-03-24T08:45:12;53930.22;;;-139.68;30.34
10940;BME280;5522;42.696;23.494;2023-03-24T08:47:39;53944.28;;;-139.68;30.40
10940;BME280;5522;42.696;23.494;2023-03-24T08:50:08;53908.09;;;-139.68;30.79
10940;BME280;5522;42.696;23.494;2023-03-24T08:52:35;53980.47;;;-139.68;30.29
10940;BME280;5522;42.696;23.494;2023-03-24T08:55:02;53942.25;;;-139.68;31.31
10940;BME280;5522;42.696;23.494;2023-03-24T08:57:29;53910.09;;;-139.68;30.42
10940;BME280;5522;42.696;23.494;2023-03-24T08:59:56;53942.25;;;-139.68;30.05
10940;BME280;5522;42.696;23.494;2023-03-24T09:02:24;53910.09;;;-139.68;29.11
10940;BME280;5522;42.696;23.494;2023-03-24T09:04:51;53952.31;;;-139.68;30.32
10940;BME280;5522;42.696;23.494;2023-03-24T09:07:20;53936.22;;;-139.68;29.28
10940;BME280;5522;42.696;23.494;2023-03-24T09:09:47;53936.22;;;-139.68;29.39
10940;BME280;5522;42.696;23.494;2023-03-24T09:12:14;53948.31;;;-139.68;30.21
10940;BME280;5522;42.696;23.494;2023-03-24T09:14:41;53958.34;;;-139.68;30.36
10940;BME280;5522;42.696;23.494;2023-03-24T09:17:12;53930.22;;;-139.68;30.35
10940;BME280;5522;42.696;23.494;2023-03-24T09:19:41;53984.47;;;-139.68;29.96
10940;BME280;5522;42.696;23.494;2023-03-24T09:22:08;53952.31;;;-139.68;28.94
10940;BME280;5522;42.696;23.494;2023-03-24T09:24:35;53920.16;;;-139.68;28.43
10940;BME280;5522;42.696;23.494;2023-03-24T09:27:02;53952.31;;;-139.68;29.50
10940;BME280;5522;42.696;23.494;2023-03-24T09:29:28;53928.19;;;-139.68;28.87
10940;BME280;5522;42.696;23.494;2023-03-24T09:31:55;53960.38;;;-139.68;27.37
10940;BME280;5522;42.696;23.494;2023-03-24T09:34:22;53972.41;;;-139.68;26.75
10940;BME280;5522;42.696;23.494;2023-03-24T09:36:51;53944.28;;;-139.68;28.19
10940;BME280;5522;42.696;23.494;2023-03-24T09:39:18;53970.41;;;-139.68;27.80
10940;BME280;5522;42.696;23.494;2023-03-24T09:41:44;53946.28;;;-139.68;27.08
10940;BME280;5522;42.696;23.494;2023-03-24T09:44:22;53954.31;;;-139.68;26.22
10940;BME280;5522;42.696;23.494;2023-03-24T09:46:53;53950.31;;;-139.68;26.44
10940;BME280;5522;42.696;23.494;2023-03-24T09:49:23;53948.31;;;-139.68;25.71
10940;BME280;5522;42.696;23.494;2023-03-24T09:51:58;53932.22;;;-139.68;26.11
10940;BME280;5522;42.696;23.494;2023-03-24T09:54:34;53940.25;;;-139.68;26.23
10940;BME280;5522;42.696;23.494;2023-03-24T09:57:03;53972.41;;;-139.68;26.44
10940;BME280;5522;42.696;23.494;2023-03-24T09:59:35;53918.16;;;-139.68;24.96
10940;BME280;5522;42.696;23.494;2023-03-24T10:02:09;53952.31;;;-139.68;26.21
10940;BME280;5522;42.696;23.494;2023-03-24T10:04:37;53962.38;;;-139.68;27.05
10940;BME280;5522;42.696;23.494;2023-03-24T10:07:08;53928.19;;;-139.68;25.52
10940;BME280;5522;42.696;23.494;2023-03-24T10:09:45;53940.25;;;-139.68;26.22
10940;BME280;5522;42.696;23.494;2023-03-24T10:12:24;53958.34;;;-139.68;26.30
10940;BME280;5522;42.696;23.494;2023-03-24T10:15:08;53944.28;;;-139.68;25.73
10940;BME280;5522;42.696;23.494;2023-03-24T10:17:46;53946.28;;;-139.68;26.48
10940;BME280;5522;42.696;23.494;2023-03-24T10:20:26;53936.22;;;-139.68;25.16
10940;BME280;5522;42.696;23.494;2023-03-24T10:23:13;53885.97;;;-139.68;25.90
10940;BME280;5522;42.696;23.494;2023-03-24T10:25:50;53928.19;;;-139.68;25.12
10940;BME280;5522;42.696;23.494;2023-03-24T10:28:19;53952.31;;;-139.68;25.31
10940;BME280;5522;42.696;23.494;2023-03-24T10:30:47;53944.28;;;-139.68;24.94
10940;BME280;5522;42.696;23.494;2023-03-24T10:33:16;53934.22;;;-139.68;26.19
10940;BME280;5522;42.696;23.494;2023-03-24T10:35:50;53946.28;;;-139.68;26.75
10940;BME280;5522;42.696;23.494;2023-03-24T10:38:22;53928.19;;;-139.68;25.99
10940;BME280;5522;42.696;23.494;2023-03-24T10:40:49;53964.38;;;-139.68;26.10
10940;BME280;5522;42.696;23.494;2023-03-24T10:43:16;53942.25;;;-139.68;27.07
10940;BME280;5522;42.696;23.494;2023-03-24T10:45:47;53960.38;;;-139.68;25.94
10940;BME280;5522;42.696;23.494;2023-03-24T10:48:32;53924.16;;;-139.68;27.27
10940;BME280;5522;42.696;23.494;2023-03-24T10:51:02;53924.16;;;-139.68;28.73
10940;BME280;5522;42.696;23.494;2023-03-24T10:53:32;53988.50;;;-139.68;29.80
10940;BME280;5522;42.696;23.494;2023-03-24T10:55:59;53968.41;;;-139.68;30.57
10940;BME280;5522;42.696;23.494;2023-03-24T10:58:29;53930.22;;;-139.68;30.03
10940;BME280;5522;42.696;23.494;2023-03-24T11:00:57;53948.31;;;-139.68;30.82
10940;BME280;5522;42.696;23.494;2023-03-24T11:03:28;53950.31;;;-139.68;30.92
10940;BME280;5522;42.696;23.494;2023-03-24T11:06:00;53936.22;;;-139.68;33.04
10940;BME280;5522;42.696;23.494;2023-03-24T11:08:33;53918.16;;;-139.68;33.61
10940;BME280;5522;42.696;23.494;2023-03-24T11:11:12;53916.13;;;-139.68;31.92
10940;BME280;5522;42.696;23.494;2023-03-24T11:13:40;53960.38;;;-139.68;29.51
10940;BME280;5522;42.696;23.494;2023-03-24T11:16:11;53940.25;;;-139.68;30.10
10940;BME280;5522;42.696;23.494;2023-03-24T11:18:54;53936.22;;;-139.68;29.94
10940;BME280;5522;42.696;23.494;2023-03-24T11:21:21;53956.34;;;-139.68;27.29
10940;BME280;5522;42.696;23.494;2023-03-24T11:23:49;53928.19;;;-139.68;29.87
10940;BME280;5522;42.696;23.494;2023-03-24T11:26:18;53922.16;;;-139.68;29.16
10940;BME280;5522;42.696;23.494;2023-03-24T11:28:49;53922.16;;;-139.68;29.29
10940;BME280;5522;42.696;23.494;2023-03-24T11:31:21;53930.22;;;-139.68;29.96
10940;BME280;5522;42.696;23.494;2023-03-24T11:33:54;53968.41;;;-139.68;26.73
10940;BME280;5522;42.696;23.494;2023-03-24T11:36:56;53980.47;;;-139.68;28.25
10940;BME280;5522;42.696;23.494;2023-03-24T11:39:27;53960.38;;;-139.68;27.83
10940;BME280;5522;42.696;23.494;2023-03-24T11:42:01;53946.28;;;-139.68;27.64
10940;BME280;5522;42.696;23.494;2023-03-24T11:44:31;53976.44;;;-139.68;28.47
10940;BME280;5522;42.696;23.494;2023-03-24T11:47:01;53934.22;;;-139.68;27.34
10940;BME280;5522;42.696;23.494;2023-03-24T11:49:31;53954.31;;;-139.68;26.92
10940;BME280;5522;42.696;23.494;2023-03-24T11:51:59;53952.31;;;-139.68;27.93
10940;BME280;5522;42.696;23.494;2023-03-24T11:54:29;53934.22;;;-139.68;27.56
10940;BME280;5522;42.696;23.494;2023-03-24T11:57:02;53916.13;;;-139.68;26.56
10940;BME280;5522;42.696;23.494;2023-03-24T11:59:36;53954.31;;;-139.68;27.22
10940;BME280;5522;42.696;23.494;2023-03-24T12:02:15;53968.41;;;-139.68;27.57
10940;BME280;5522;42.696;23.494;2023-03-24T12:05:20;53914.13;;;-139.68;25.88
10940;BME280;5522;42.696;23.494;2023-03-24T12:08:10;53932.22;;;-139.68;24.71
10940;BME280;5522;42.696;23.494;2023-03-24T12:10:58;53940.25;;;-139.68;23.23
10940;BME280;5522;42.696;23.494;2023-03-24T12:13:32;53952.31;;;-139.68;26.39
10940;BME280;5522;42.696;23.494;2023-03-24T12:21:55;53908.09;;;-139.68;27.71
10940;BME280;5522;42.696;23.494;2023-03-24T12:24:37;53932.22;;;-139.68;26.76
10940;BME280;5522;42.696;23.494;2023-03-24T12:27:17;53912.13;;;-139.68;24.46
10940;BME280;5522;42.696;23.494;2023-03-24T12:29:58;53962.38;;;-139.68;22.85
10940;BME280;5522;42.696;23.494;2023-03-24T12:32:39;53922.16;;;-139.68;24.14
10940;BME280;5522;42.696;23.494;2023-03-24T12:38:41;53904.06;;;-139.68;24.82
10940;BME280;5522;42.696;23.494;2023-03-24T12:41:33;53932.22;;;-139.68;25.07
10940;BME280;5522;42.696;23.494;2023-03-24T12:44:30;53924.16;;;-139.68;25.60
10940;BME280;5522;42.696;23.494;2023-03-24T12:47:07;53932.22;;;-139.68;25.56
10940;BME280;5522;42.696;23.494;2023-03-24T12:49:52;53902.06;;;-139.68;26.45
10940;BME280;5522;42.696;23.494;2023-03-24T12:52:38;53962.38;;;-139.68;24.86
10940;BME280;5522;42.696;23.494;2023-03-24T12:55:10;53918.16;;;-139.68;24.84
10940;BME280;5522;42.696;23.494;2023-03-24T12:57:41;53910.09;;;-139.68;25.01
10940;BME280;5522;42.696;23.494;2023-03-24T13:00:17;53918.16;;;-139.68;25.02
10940;BME280;5522;42.696;23.494;2023-03-24T13:02:50;53930.22;;;-139.68;26.09
10940;BME280;5522;42.696;23.494;2023-03-24T13:05:19;53958.34;;;-139.68;26.09
10940;BME280;5522;42.696;23.494;2023-03-24T13:07:49;53883.97;;;-139.68;25.47
10940;BME280;5522;42.696;23.494;2023-03-24T13:10:22;53892.00;;;-139.68;25.69
10940;BME280;5522;42.696;23.494;2023-03-24T13:12:58;53892.00;;;-139.68;25.31
10940;BME280;5522;42.696;23.494;2023-03-24T13:15:33;53898.03;;;-139.68;26.06
10940;BME280;5522;42.696;23.494;2023-03-24T13:18:09;53896.03;;;-139.68;26.54